Time;durP1;ratioP1;P1;durP2;ratioP2;P2;SDS_P1;SDS_P2;PMS_P1;PMS_P2;Temp;Humidity;BMP_temperature;BMP_pressure;BME280_temperature;BME280_humidity;BME280_pressure;Samples;Min_cycle;Max_cycle;Signal;HPM_P1;HPM_P2
2021/07/26 00:00:14;;;;;;;6.30;2.45;;;17.60;93.40;;;;;;6209168;23;20032;-75
2021/07/26 00:02:43;;;;;;;5.25;2.05;;;17.60;93.20;;;;;;6214243;23;20088;-75
2021/07/26 00:05:15;;;;;;;6.40;2.70;;;17.60;93.40;;;;;;6215197;23;20309;-74
2021/07/26 00:07:43;;;;;;;5.47;2.42;;;17.60;93.20;;;;;;6215011;23;20215;-75
2021/07/26 00:10:10;;;;;;;6.57;2.15;;;17.60;93.30;;;;;;6214471;23;20020;-75
2021/07/26 00:12:37;;;;;;;6.47;2.38;;;17.70;93.40;;;;;;6215653;23;20028;-74
2021/07/26 00:15:07;;;;;;;5.03;1.88;;;17.80;92.70;;;;;;6215162;23;20017;-75
2021/07/26 00:17:34;;;;;;;5.10;2.03;;;17.90;92.60;;;;;;6213906;23;20025;-75
2021/07/26 00:20:03;;;;;;;6.82;2.00;;;17.90;92.00;;;;;;6215797;23;20243;-75
2021/07/26 00:22:32;;;;;;;6.75;2.78;;;17.90;92.10;;;;;;6217762;23;20076;-76
2021/07/26 00:24:59;;;;;;;5.93;2.75;;;17.90;92.20;;;;;;6216237;23;20012;-76
2021/07/26 00:27:26;;;;;;;6.20;2.72;;;17.90;92.20;;;;;;6217290;23;20025;-74
2021/07/26 00:29:53;;;;;;;5.43;2.53;;;18.00;92.00;;;;;;6212818;23;20321;-75
2021/07/26 00:32:20;;;;;;;8.20;2.80;;;18.00;91.80;;;;;;6217191;23;20365;-74
2021/07/26 00:34:47;;;;;;;11.57;2.75;;;18.00;91.80;;;;;;6214228;23;20051;-75
2021/07/26 00:37:19;;;;;;;6.72;3.10;;;18.10;91.70;;;;;;6217726;23;20272;-75
2021/07/26 00:39:47;;;;;;;6.35;3.05;;;18.10;91.50;;;;;;6191559;23;20163;-75
2021/07/26 00:42:14;;;;;;;6.40;3.20;;;18.10;91.40;;;;;;6240346;23;20075;-75
2021/07/26 00:44:41;;;;;;;7.80;3.25;;;18.10;91.40;;;;;;6216614;23;20063;-75
2021/07/26 00:47:08;;;;;;;7.53;3.33;;;18.00;91.90;;;;;;6219557;23;20008;-75
2021/07/26 00:49:35;;;;;;;6.80;2.90;;;18.00;91.60;;;;;;6219773;23;20024;-75
2021/07/26 00:52:03;;;;;;;12.00;3.10;;;18.00;91.40;;;;;;6218019;23;20208;-75
2021/07/26 00:54:35;;;;;;;8.07;2.58;;;18.00;91.40;;;;;;6219697;23;20393;-75
2021/07/26 00:57:03;;;;;;;6.10;2.83;;;18.10;91.60;;;;;;6216728;23;20406;-75
2021/07/26 00:59:31;;;;;;;7.65;2.78;;;18.00;91.20;;;;;;6218940;23;20017;-76
2021/07/26 01:01:59;;;;;;;8.18;2.50;;;18.00;91.50;;;;;;6213574;23;20020;-76
2021/07/26 01:04:29;;;;;;;6.90;3.20;;;18.10;91.30;;;;;;6218878;23;20147;-75
2021/07/26 01:06:57;;;;;;;9.20;2.83;;;18.00;90.80;;;;;;6221556;23;20017;-75
2021/07/26 01:09:27;;;;;;;5.30;2.60;;;17.90;90.80;;;;;;6219424;23;20020;-75
2021/07/26 01:11:56;;;;;;;7.75;3.25;;;17.90;91.10;;;;;;6217690;23;20048;-76
2021/07/26 01:14:24;;;;;;;7.45;3.13;;;17.90;91.00;;;;;;6215572;23;20054;-76
2021/07/26 01:16:51;;;;;;;8.48;3.25;;;17.80;91.10;;;;;;6216057;23;20091;-76
2021/07/26 01:19:18;;;;;;;5.75;2.97;;;17.80;90.70;;;;;;6218332;23;20324;-76
2021/07/26 01:21:48;;;;;;;7.18;3.38;;;17.90;90.80;;;;;;6219241;23;20040;-76
2021/07/26 01:24:15;;;;;;;7.82;3.15;;;17.90;90.80;;;;;;6215724;23;20024;-76
2021/07/26 01:26:43;;;;;;;7.63;2.97;;;17.90;90.70;;;;;;6215874;23;20051;-76
2021/07/26 01:29:11;;;;;;;7.90;3.42;;;17.90;90.60;;;;;;6218714;23;20020;-76
2021/07/26 01:31:41;;;;;;;6.43;3.00;;;17.80;91.00;;;;;;6217560;23;20016;-76
2021/07/26 01:34:09;;;;;;;6.90;3.55;;;17.70;91.40;;;;;;6216808;23;20201;-76
2021/07/26 01:36:37;;;;;;;7.95;3.17;;;17.70;91.60;;;;;;6222346;23;20027;-75
2021/07/26 01:39:05;;;;;;;7.43;3.53;;;17.80;91.50;;;;;;6221662;23;20016;-76
2021/07/26 01:41:36;;;;;;;9.43;3.85;;;17.80;91.30;;;;;;6219210;23;20025;-76
2021/07/26 01:44:04;;;;;;;6.47;3.00;;;17.90;91.10;;;;;;6220836;23;20032;-76
2021/07/26 01:46:39;;;;;;;7.45;3.38;;;17.90;90.90;;;;;;6219496;23;20025;-76
2021/07/26 01:49:40;;;;;;;5.43;3.00;;;17.90;90.80;;;;;;6215274;23;20028;-76
2021/07/26 01:52:09;;;;;;;6.82;3.28;;;17.80;90.70;;;;;;6213907;23;20051;-76
2021/07/26 01:54:38;;;;;;;7.30;2.97;;;17.80;90.70;;;;;;6217279;23;20055;-76
2021/07/26 01:57:05;;;;;;;6.68;3.05;;;17.70;91.10;;;;;;6218546;23;20446;-76
2021/07/26 01:59:32;;;;;;;6.75;2.90;;;17.70;90.80;;;;;;6221527;23;20016;-76
2021/07/26 02:02:00;;;;;;;12.02;3.20;;;17.80;90.80;;;;;;6215325;23;20036;-76
2021/07/26 02:04:31;;;;;;;8.57;3.22;;;17.80;90.50;;;;;;6220175;23;20024;-76
2021/07/26 02:07:02;;;;;;;6.35;3.50;;;17.70;90.70;;;;;;6221337;23;20035;-76
2021/07/26 02:09:29;;;;;;;6.13;3.10;;;17.70;90.90;;;;;;6219848;23;20048;-77
2021/07/26 02:11:57;;;;;;;7.78;3.58;;;17.60;90.90;;;;;;6220278;23;20035;-76
2021/07/26 02:14:25;;;;;;;7.95;3.55;;;17.60;90.80;;;;;;6219578;23;20048;-77
2021/07/26 02:16:53;;;;;;;7.03;3.42;;;17.60;90.70;;;;;;6217708;23;20055;-76
2021/07/26 02:19:20;;;;;;;6.63;4.03;;;17.60;90.80;;;;;;6222226;23;20028;-76
2021/07/26 02:21:47;;;;;;;9.00;4.15;;;17.60;91.30;;;;;;6221415;23;20044;-76
2021/07/26 02:24:14;;;;;;;10.90;3.95;;;17.60;91.20;;;;;;6218304;23;20021;-76
2021/07/26 02:26:42;;;;;;;6.15;3.28;;;17.60;91.00;;;;;;6221469;23;20020;-76
2021/07/26 02:29:12;;;;;;;9.43;3.45;;;17.70;90.60;;;;;;6221760;23;20254;-76
2021/07/26 02:31:39;;;;;;;7.55;3.42;;;17.70;90.40;;;;;;6221278;23;20043;-76
2021/07/26 02:34:06;;;;;;;6.60;3.38;;;17.70;89.90;;;;;;6216900;23;20024;-76
2021/07/26 02:36:33;;;;;;;15.32;5.95;;;17.60;90.20;;;;;;6220229;23;20024;-76
2021/07/26 02:39:07;;;;;;;9.85;3.97;;;17.60;89.80;;;;;;6219007;23;20024;-76
2021/07/26 02:41:35;;;;;;;7.07;3.45;;;17.60;89.90;;;;;;6220012;23;20100;-76
2021/07/26 02:44:02;;;;;;;9.05;3.90;;;17.50;89.50;;;;;;6219490;23;20236;-77
2021/07/26 02:46:33;;;;;;;6.40;3.17;;;17.40;90.00;;;;;;6221572;23;20024;-77
2021/07/26 02:49:01;;;;;;;5.50;2.80;;;17.40;90.20;;;;;;6218938;23;20024;-76
2021/07/26 02:51:28;;;;;;;7.93;3.90;;;17.30;90.30;;;;;;6221451;23;20015;-76
2021/07/26 02:53:56;;;;;;;7.05;3.28;;;17.30;90.20;;;;;;6221510;23;20039;-76
2021/07/26 02:56:23;;;;;;;7.97;3.85;;;17.40;90.10;;;;;;6219816;23;20264;-76
2021/07/26 02:58:50;;;;;;;8.23;3.33;;;17.40;90.10;;;;;;6218853;23;20048;-76
2021/07/26 03:01:19;;;;;;;11.95;3.75;;;17.30;90.00;;;;;;6214590;23;20371;-76
2021/07/26 03:03:47;;;;;;;12.48;3.67;;;17.40;89.90;;;;;;6239847;23;20052;-76
2021/07/26 03:06:15;;;;;;;8.38;3.17;;;17.30;90.20;;;;;;6218898;23;20015;-76
2021/07/26 03:08:43;;;;;;;7.28;3.65;;;17.30;90.20;;;;;;6218655;23;20024;-76
2021/07/26 03:11:11;;;;;;;8.30;3.58;;;17.30;90.40;;;;;;6219258;23;20220;-76
2021/07/26 03:13:39;;;;;;;7.88;3.33;;;17.30;90.30;;;;;;6219019;23;20025;-76
2021/07/26 03:16:06;;;;;;;6.10;3.13;;;17.30;90.40;;;;;;6216748;23;20027;-76
2021/07/26 03:18:34;;;;;;;8.20;3.67;;;17.20;90.40;;;;;;6219648;23;20036;-76
2021/07/26 03:21:04;;;;;;;7.88;4.13;;;17.20;90.30;;;;;;6216395;23;20020;-77
2021/07/26 03:23:37;;;;;;;7.00;3.03;;;17.10;90.40;;;;;;6215543;23;20374;-76
2021/07/26 03:26:06;;;;;;;7.97;3.17;;;17.20;90.50;;;;;;6215579;23;20293;-76
2021/07/26 03:28:34;;;;;;;10.57;3.33;;;17.10;90.40;;;;;;6215171;23;20076;-76
2021/07/26 03:31:01;;;;;;;10.23;4.00;;;17.10;90.50;;;;;;6215141;23;20025;-76
2021/07/26 03:33:34;;;;;;;8.13;3.45;;;17.10;90.50;;;;;;6212851;23;20351;-76
2021/07/26 03:36:04;;;;;;;6.75;3.45;;;17.10;90.50;;;;;;6215305;23;20024;-76
2021/07/26 03:38:31;;;;;;;8.15;3.88;;;17.10;90.40;;;;;;6217399;23;20070;-76
2021/07/26 03:40:58;;;;;;;6.05;2.90;;;17.10;90.50;;;;;;6218903;23;20024;-76
2021/07/26 03:43:27;;;;;;;6.82;3.22;;;17.10;90.50;;;;;;6218333;23;20189;-76
2021/07/26 03:45:54;;;;;;;8.05;4.18;;;17.10;90.50;;;;;;6221236;23;20083;-76
2021/07/26 03:48:21;;;;;;;6.93;3.38;;;17.10;90.50;;;;;;6221063;23;20324;-76
2021/07/26 03:50:48;;;;;;;7.43;4.18;;;17.10;90.00;;;;;;6220465;23;20031;-76
2021/07/26 03:53:18;;;;;;;6.05;3.33;;;17.10;90.60;;;;;;6217786;23;20025;-76
2021/07/26 03:55:45;;;;;;;10.43;3.40;;;17.10;90.20;;;;;;6221185;23;20025;-76
2021/07/26 03:58:13;;;;;;;7.35;3.58;;;17.10;90.60;;;;;;6219287;23;20016;-76
2021/07/26 04:00:41;;;;;;;6.53;3.17;;;17.20;90.30;;;;;;6216380;23;20016;-76
2021/07/26 04:03:13;;;;;;;7.80;3.90;;;17.30;89.90;;;;;;6221184;23;20178;-76
2021/07/26 04:05:43;;;;;;;7.10;3.85;;;17.30;89.80;;;;;;6221802;23;20071;-76
2021/07/26 04:08:14;;;;;;;7.57;3.55;;;17.20;89.90;;;;;;6220602;23;20016;-76
2021/07/26 04:10:47;;;;;;;8.55;3.72;;;17.20;90.00;;;;;;6220884;23;20025;-76
2021/07/26 04:13:14;;;;;;;8.60;3.20;;;17.20;90.00;;;;;;6220463;23;20012;-76
2021/07/26 04:15:44;;;;;;;6.97;3.67;;;17.20;90.10;;;;;;6217502;23;20077;-76
2021/07/26 04:18:12;;;;;;;;;;;17.20;89.60;;;;;;6220701;23;20414;-76
2021/07/26 04:20:39;;;;;;;6.20;2.90;;;17.20;89.70;;;;;;6222997;23;20001;-76
2021/07/26 04:23:07;;;;;;;7.32;3.10;;;17.20;89.70;;;;;;6221296;23;20067;-76
2021/07/26 04:25:34;;;;;;;8.43;3.50;;;17.30;89.70;;;;;;6220146;23;20016;-76
2021/07/26 04:28:04;;;;;;;6.25;3.15;;;17.40;89.50;;;;;;6220375;23;20082;-76
2021/07/26 04:30:31;;;;;;;;;;;17.40;89.70;;;;;;6244242;23;20028;-76
2021/07/26 04:32:58;;;;;;;5.85;3.53;;;17.40;89.40;;;;;;6219499;23;19920;-76
2021/07/26 04:35:25;;;;;;;5.38;2.83;;;17.40;89.20;;;;;;6219754;23;20071;-76
2021/07/26 04:37:53;;;;;;;7.80;2.80;;;17.30;89.40;;;;;;6222045;23;20182;-76
2021/07/26 04:40:20;;;;;;;5.22;2.92;;;17.40;89.00;;;;;;6219873;23;20192;-76
2021/07/26 04:42:47;;;;;;;7.68;3.25;;;17.40;89.00;;;;;;6217374;23;20372;-76
2021/07/26 04:45:16;;;;;;;5.68;2.80;;;17.50;88.60;;;;;;6216983;23;20028;-75
2021/07/26 04:47:43;;;;;;;7.40;3.08;;;17.50;88.60;;;;;;6217956;23;20025;-76
2021/07/26 04:50:12;;;;;;;9.90;3.60;;;17.40;88.60;;;;;;6215995;23;20080;-76
2021/07/26 04:52:39;;;;;;;9.18;3.67;;;17.40;89.10;;;;;;6217766;23;20221;-76
2021/07/26 04:55:08;;;;;;;9.52;3.30;;;17.50;89.00;;;;;;6218186;23;20122;-76
2021/07/26 04:57:35;;;;;;;5.20;2.97;;;17.60;88.60;;;;;;6217953;23;20025;-76
2021/07/26 05:00:03;;;;;;;6.75;3.05;;;17.60;88.40;;;;;;6214772;23;20222;-76
2021/07/26 05:02:31;;;;;;;5.13;2.78;;;17.50;88.30;;;;;;6213357;23;20096;-76
2021/07/26 05:05:01;;;;;;;9.90;2.92;;;17.60;88.60;;;;;;6215353;23;20017;-77
2021/07/26 05:07:29;;;;;;;5.22;2.65;;;17.70;87.90;;;;;;6214509;23;20024;-76
2021/07/26 05:09:56;;;;;;;6.70;2.92;;;17.70;87.00;;;;;;6218046;23;20032;-75
2021/07/26 05:12:23;;;;;;;6.53;2.85;;;17.60;87.50;;;;;;6211540;23;20131;-76
2021/07/26 05:14:53;;;;;;;5.95;2.88;;;17.70;87.30;;;;;;6216633;23;20008;-75
2021/07/26 05:17:24;;;;;;;7.60;3.20;;;17.70;87.20;;;;;;6215408;23;20358;-75
2021/07/26 05:19:52;;;;;;;5.68;2.90;;;17.60;87.10;;;;;;6218191;23;20091;-74
2021/07/26 05:22:19;;;;;;;6.60;2.38;;;17.60;87.50;;;;;;6219439;23;20035;-75
2021/07/26 05:24:47;;;;;;;6.22;2.35;;;17.60;87.30;;;;;;6219872;23;20017;-74
2021/07/26 05:27:14;;;;;;;4.85;2.33;;;17.70;86.90;;;;;;6218963;23;20047;-76
2021/07/26 05:29:42;;;;;;;7.95;3.15;;;17.70;87.30;;;;;;6218540;23;20072;-76
2021/07/26 05:32:10;;;;;;;5.07;2.53;;;17.80;87.00;;;;;;6218401;23;20044;-75
2021/07/26 05:34:37;;;;;;;4.43;2.38;;;17.70;87.30;;;;;;6219247;23;20019;-75
2021/07/26 05:37:06;;;;;;;6.03;2.58;;;17.80;87.00;;;;;;6218948;23;20340;-76
2021/07/26 05:39:33;;;;;;;10.57;2.77;;;17.90;87.10;;;;;;6220605;23;20048;-75
2021/07/26 05:42:02;;;;;;;8.80;2.55;;;17.90;87.00;;;;;;6214475;23;20035;-75
2021/07/26 05:44:30;;;;;;;5.23;2.77;;;18.00;87.00;;;;;;6218141;23;20024;-76
2021/07/26 05:46:57;;;;;;;6.22;2.97;;;18.10;86.30;;;;;;6221427;23;20305;-77
2021/07/26 05:49:24;;;;;;;5.20;2.50;;;18.10;86.20;;;;;;6217763;23;20260;-77
2021/07/26 05:51:51;;;;;;;6.80;3.00;;;18.00;86.30;;;;;;6217273;23;20017;-77
2021/07/26 05:54:20;;;;;;;6.43;3.05;;;18.10;86.40;;;;;;6216162;23;20307;-75
2021/07/26 05:56:49;;;;;;;7.78;3.08;;;18.00;86.80;;;;;;6218670;23;20036;-77
2021/07/26 05:59:17;;;;;;;5.10;2.83;;;18.00;86.80;;;;;;6217919;23;20039;-77
2021/07/26 06:01:50;;;;;;;5.47;2.85;;;18.20;86.60;;;;;;6214872;23;20024;-76
2021/07/26 06:04:19;;;;;;;10.00;2.92;;;18.30;86.30;;;;;;6215605;23;20205;-77
2021/07/26 06:06:48;;;;;;;6.07;2.75;;;18.30;85.90;;;;;;6218178;23;20024;-77
2021/07/26 06:09:18;;;;;;;9.77;3.30;;;18.20;86.20;;;;;;6216681;23;20266;-76
2021/07/26 06:11:47;;;;;;;8.18;4.00;;;18.20;86.10;;;;;;6217744;23;20220;-77
2021/07/26 06:14:14;;;;;;;5.03;2.70;;;18.20;86.20;;;;;;6220046;23;20056;-76
2021/07/26 06:16:42;;;;;;;6.53;2.65;;;18.20;86.20;;;;;;6219343;23;20076;-76
2021/07/26 06:19:10;;;;;;;7.25;3.33;;;18.10;86.60;;;;;;6217798;23;20020;-76
2021/07/26 06:21:42;;;;;;;6.63;3.50;;;18.10;86.70;;;;;;6213990;23;20040;-76
2021/07/26 06:24:09;;;;;;;7.45;3.17;;;18.10;87.00;;;;;;6213060;23;20331;-76
2021/07/26 06:26:37;;;;;;;5.75;2.90;;;18.00;87.20;;;;;;6217350;23;20024;-76
2021/07/26 06:29:06;;;;;;;6.85;3.30;;;18.10;87.20;;;;;;6215469;23;20064;-76
2021/07/26 06:31:33;;;;;;;8.48;3.30;;;18.20;86.60;;;;;;6215663;23;20031;-76
2021/07/26 06:34:01;;;;;;;6.80;3.13;;;18.40;86.60;;;;;;6212983;23;20289;-76
2021/07/26 06:36:37;;;;;;;5.25;2.60;;;18.60;86.40;;;;;;6217276;23;20023;-76
2021/07/26 06:39:05;;;;;;;6.40;3.15;;;18.60;86.30;;;;;;6217341;23;20023;-76
2021/07/26 06:41:32;;;;;;;7.15;3.05;;;18.70;85.90;;;;;;6216241;23;20044;-76
2021/07/26 06:44:00;;;;;;;5.65;2.80;;;18.70;85.70;;;;;;6217900;23;20312;-76
2021/07/26 06:46:31;;;;;;;5.78;2.88;;;18.70;85.90;;;;;;6214544;23;20272;-76
2021/07/26 06:48:58;;;;;;;5.28;2.85;;;18.90;85.60;;;;;;6213085;23;20032;-76
2021/07/26 06:51:26;;;;;;;7.63;3.03;;;19.00;85.70;;;;;;6214427;23;20035;-76
2021/07/26 06:53:53;;;;;;;6.57;3.00;;;19.10;85.30;;;;;;6214691;23;20332;-76
2021/07/26 06:56:20;;;;;;;5.93;3.17;;;19.10;84.70;;;;;;6215894;23;20028;-75
2021/07/26 06:58:48;;;;;;;6.25;3.60;;;19.10;85.10;;;;;;6213997;23;20059;-76
2021/07/26 07:01:16;;;;;;;9.80;3.38;;;19.10;85.50;;;;;;6212230;23;20024;-76
2021/07/26 07:03:46;;;;;;;5.75;3.03;;;19.10;84.90;;;;;;6219201;23;20011;-76
2021/07/26 07:06:14;;;;;;;7.30;3.35;;;19.10;84.30;;;;;;6218661;23;20283;-77
2021/07/26 07:08:42;;;;;;;6.03;2.85;;;19.20;84.70;;;;;;6216564;23;20088;-76
2021/07/26 07:11:11;;;;;;;7.55;3.22;;;19.20;84.60;;;;;;6216833;23;20016;-77
2021/07/26 07:13:40;;;;;;;5.93;2.90;;;19.30;84.10;;;;;;6217068;23;20012;-77
2021/07/26 07:16:11;;;;;;;7.10;3.17;;;19.50;84.10;;;;;;6218967;23;20076;-77
2021/07/26 07:18:38;;;;;;;5.40;2.88;;;19.50;85.10;;;;;;6217413;23;20328;-76
2021/07/26 07:21:07;;;;;;;7.60;3.22;;;19.60;85.00;;;;;;6217769;23;20235;-76
2021/07/26 07:23:34;;;;;;;6.18;2.95;;;19.70;83.70;;;;;;6217826;23;20271;-77
2021/07/26 07:26:01;;;;;;;7.63;2.70;;;20.00;83.30;;;;;;6220681;23;20009;-77
2021/07/26 07:28:31;;;;;;;6.70;3.20;;;20.30;83.40;;;;;;6216578;23;20025;-77
2021/07/26 07:31:00;;;;;;;6.50;3.15;;;20.60;82.50;;;;;;6217999;23;20021;-77
2021/07/26 07:33:28;;;;;;;6.40;3.25;;;20.80;81.00;;;;;;6217574;23;20017;-77
2021/07/26 07:35:55;;;;;;;5.57;2.70;;;21.00;80.40;;;;;;6218424;23;20008;-77
2021/07/26 07:38:24;;;;;;;5.45;2.75;;;21.10;80.50;;;;;;6215400;23;20042;-77
2021/07/26 07:40:51;;;;;;;6.00;2.92;;;21.30;80.10;;;;;;6217027;23;20108;-76
2021/07/26 07:43:18;;;;;;;7.97;3.45;;;21.30;79.90;;;;;;6215523;23;20209;-76
2021/07/26 07:45:46;;;;;;;7.22;2.72;;;21.50;79.90;;;;;;6218184;23;20024;-76
2021/07/26 07:48:13;;;;;;;5.07;2.50;;;21.60;80.30;;;;;;6217979;23;20247;-76
2021/07/26 07:50:40;;;;;;;6.10;2.83;;;21.60;78.80;;;;;;6217148;23;20035;-76
2021/07/26 07:53:08;;;;;;;5.05;2.70;;;21.40;79.30;;;;;;6216305;23;20024;-76
2021/07/26 07:55:37;;;;;;;7.25;3.03;;;21.70;79.20;;;;;;6218601;23;20047;-75
2021/07/26 07:58:05;;;;;;;5.17;2.73;;;21.90;79.20;;;;;;6218776;23;20058;-76
2021/07/26 08:00:32;;;;;;;6.07;3.50;;;22.20;77.50;;;;;;6210356;23;20036;-76
2021/07/26 08:03:00;;;;;;;8.50;3.00;;;22.10;77.90;;;;;;6217495;23;20024;-76
2021/07/26 08:05:27;;;;;;;5.32;2.58;;;22.20;78.00;;;;;;6210158;23;20032;-76
2021/07/26 08:07:55;;;;;;;4.25;2.85;;;22.40;77.70;;;;;;6212613;23;20035;-76
2021/07/26 08:10:22;;;;;;;6.50;2.80;;;22.50;77.10;;;;;;6213618;23;20027;-76
2021/07/26 08:12:51;;;;;;;4.85;2.80;;;22.70;76.80;;;;;;6211502;23;20021;-76
2021/07/26 08:15:19;;;;;;;7.93;2.95;;;22.60;76.10;;;;;;6212169;23;20044;-76
2021/07/26 08:17:47;;;;;;;6.57;3.10;;;22.80;75.40;;;;;;6211648;23;20055;-76
2021/07/26 08:20:17;;;;;;;5.93;3.10;;;22.80;75.30;;;;;;6216515;23;20311;-76
2021/07/26 08:22:45;;;;;;;8.18;3.00;;;23.10;75.20;;;;;;6215246;23;20029;-76
2021/07/26 08:25:13;;;;;;;6.80;3.75;;;23.20;74.40;;;;;;6212516;23;20271;-76
2021/07/26 08:28:00;;;;;;;6.25;3.03;;;23.20;74.10;;;;;;6213503;23;20017;-76
2021/07/26 08:30:31;;;;;;;4.60;2.45;;;23.60;72.90;;;;;;6217022;23;20374;-76
2021/07/26 08:32:59;;;;;;;5.03;2.63;;;23.70;73.10;;;;;;6214507;23;20028;-77
2021/07/26 08:35:27;;;;;;;5.53;2.70;;;23.80;72.80;;;;;;6215122;23;20012;-76
2021/07/26 08:37:54;;;;;;;8.27;2.97;;;23.80;72.60;;;;;;6217989;23;20440;-76
2021/07/26 08:40:23;;;;;;;5.40;3.08;;;23.60;74.30;;;;;;6218396;23;20107;-76
2021/07/26 08:42:51;;;;;;;5.07;2.83;;;23.60;73.70;;;;;;6218040;23;20368;-76
2021/07/26 08:45:20;;;;;;;6.68;3.22;;;23.30;75.20;;;;;;6218537;23;20011;-76
2021/07/26 08:47:48;;;;;;;5.72;2.55;;;23.50;74.90;;;;;;6219518;23;20374;-76
2021/07/26 08:50:18;;;;;;;7.20;3.10;;;23.60;74.20;;;;;;6218696;23;20009;-76
2021/07/26 08:52:47;;;;;;;4.95;2.70;;;23.60;74.50;;;;;;6216772;23;20028;-76
2021/07/26 08:55:16;;;;;;;6.65;3.10;;;23.50;74.10;;;;;;6217315;23;20047;-76
2021/07/26 08:57:45;;;;;;;5.25;2.58;;;23.60;74.20;;;;;;6217466;23;20027;-76
2021/07/26 09:00:14;;;;;;;5.85;2.80;;;23.90;73.40;;;;;;6211254;23;20040;-76
2021/07/26 09:02:43;;;;;;;5.65;3.05;;;24.00;73.60;;;;;;6218792;23;20008;-76
2021/07/26 09:05:12;;;;;;;5.43;2.55;;;24.00;72.20;;;;;;6216633;23;20095;-76
2021/07/26 09:07:41;;;;;;;5.55;3.10;;;24.60;71.00;;;;;;6217603;23;20024;-77
2021/07/26 09:10:13;;;;;;;5.00;2.30;;;25.10;69.00;;;;;;6215742;23;20070;-74
2021/07/26 09:12:41;;;;;;;5.78;2.58;;;24.80;66.90;;;;;;6216557;23;20040;-80
2021/07/26 09:15:24;;;;;;;6.97;3.42;;;24.60;69.80;;;;;;6216148;23;20088;-77
2021/07/26 09:17:53;;;;;;;5.82;3.00;;;24.50;69.80;;;;;;6218723;23;20032;-76
2021/07/26 09:20:24;;;;;;;6.57;2.88;;;24.40;70.40;;;;;;6216966;23;20036;-76
2021/07/26 09:22:51;;;;;;;5.43;2.53;;;24.20;70.30;;;;;;6217191;23;20024;-78
2021/07/26 09:25:21;;;;;;;5.55;2.78;;;24.30;69.10;;;;;;6218718;23;20021;-76
2021/07/26 09:28:00;;;;;;;5.10;2.50;;;24.40;69.40;;;;;;6214374;23;20032;-76
2021/07/26 09:30:32;;;;;;;4.82;2.38;;;24.40;68.60;;;;;;6217145;23;20028;-76
2021/07/26 09:33:02;;;;;;;5.28;2.78;;;24.20;68.70;;;;;;6221458;23;20343;-76
2021/07/26 09:35:29;;;;;;;;;;;24.30;69.50;;;;;;6217049;23;20366;-76
2021/07/26 09:38:04;;;;;;;5.00;2.65;;;24.30;69.40;;;;;;6223222;23;19919;-76
2021/07/26 09:40:35;;;;;;;6.13;2.65;;;24.40;71.00;;;;;;6218968;23;20028;-76
2021/07/26 09:43:17;;;;;;;5.72;2.67;;;24.30;69.50;;;;;;6219723;23;20068;-76
2021/07/26 09:45:45;;;;;;;5.18;2.30;;;24.50;69.30;;;;;;6221131;23;20050;-76
2021/07/26 09:48:14;;;;;;;6.05;2.75;;;24.50;66.20;;;;;;6217567;23;20368;-76
2021/07/26 09:50:43;;;;;;;5.63;2.78;;;24.60;66.80;;;;;;6220191;23;20024;-75
2021/07/26 09:53:24;;;;;;;5.17;2.33;;;24.60;65.60;;;;;;6217106;23;20028;-76
2021/07/26 09:55:52;;;;;;;4.63;2.47;;;24.80;66.30;;;;;;6219714;23;20090;-76
2021/07/26 09:58:22;;;;;;;5.05;2.67;;;25.30;64.20;;;;;;6222929;23;20020;-77
2021/07/26 10:00:49;;;;;;;6.47;2.50;;;25.00;63.00;;;;;;6214417;23;20016;-76
2021/07/26 10:03:17;;;;;;;5.53;1.85;;;25.30;63.00;;;;;;6219789;23;20028;-76
2021/07/26 10:05:44;;;;;;;4.20;2.33;;;25.40;61.10;;;;;;6217281;23;20220;-75
2021/07/26 10:08:12;;;;;;;5.78;1.92;;;25.70;59.40;;;;;;6215004;23;20044;-76
2021/07/26 10:10:41;;;;;;;4.28;1.88;;;26.00;57.20;;;;;;6219812;23;20031;-76
2021/07/26 10:13:09;;;;;;;4.28;1.75;;;26.60;58.80;;;;;;6220037;23;20220;-75
2021/07/26 10:15:38;;;;;;;5.38;1.95;;;27.00;54.50;;;;;;6220748;23;20032;-76
2021/07/26 10:18:06;;;;;;;5.38;2.13;;;27.20;54.30;;;;;;6219459;23;20036;-75
2021/07/26 10:20:39;;;;;;;4.05;2.17;;;27.40;53.50;;;;;;6223441;23;20322;-76
2021/07/26 10:23:14;;;;;;;5.35;2.33;;;27.80;51.80;;;;;;6245024;23;20028;-75
2021/07/26 10:25:46;;;;;;;2.72;1.67;;;27.90;49.20;;;;;;6222190;23;20510;-76
2021/07/26 10:28:22;;;;;;;3.80;1.63;;;28.60;47.50;;;;;;6221603;23;20231;-73
2021/07/26 10:30:49;;;;;;;4.50;2.10;;;29.60;45.80;;;;;;6218217;23;20029;-73
2021/07/26 10:33:16;;;;;;;4.28;1.85;;;29.60;44.20;;;;;;6219998;23;20341;-73
2021/07/26 10:35:50;;;;;;;3.45;1.50;;;30.00;43.80;;;;;;6219742;23;20228;-75
2021/07/26 10:38:54;;;;;;;3.00;1.23;;;30.60;40.20;;;;;;6217429;23;20084;-75
2021/07/26 10:41:58;;;;;;;4.28;2.20;;;30.90;39.30;;;;;;6221211;23;20024;-75
2021/07/26 10:44:42;;;;;;;4.65;1.55;;;31.50;38.10;;;;;;6219732;23;20028;-75
2021/07/26 10:47:20;;;;;;;3.47;1.70;;;31.70;37.40;;;;;;6220395;23;20017;-74
2021/07/26 10:50:12;;;;;;;3.58;1.88;;;32.40;37.90;;;;;;6219547;23;20023;-75
2021/07/26 10:52:51;;;;;;;5.03;1.80;;;32.30;37.70;;;;;;6216360;23;20364;-75
2021/07/26 10:56:09;;;;;;;4.50;2.45;;;32.90;36.90;;;;;;6219492;23;20028;-75
2021/07/26 10:59:07;;;;;;;4.68;2.00;;;33.50;36.60;;;;;;6220641;23;20351;-75
2021/07/26 11:01:54;;;;;;;5.05;1.77;;;33.30;36.10;;;;;;6213869;23;20075;-75
2021/07/26 11:04:42;;;;;;;4.25;2.25;;;31.60;38.60;;;;;;6216438;23;20020;-74
2021/07/26 11:07:11;;;;;;;6.72;2.30;;;29.80;41.60;;;;;;6219234;23;20035;-74
2021/07/26 11:09:47;;;;;;;4.57;2.30;;;29.20;43.00;;;;;;6219264;23;20031;-74
2021/07/26 11:12:15;;;;;;;3.85;1.70;;;28.50;45.30;;;;;;6219002;23;20461;-75
2021/07/26 11:15:17;;;;;;;3.63;1.95;;;28.30;45.70;;;;;;6218729;23;20078;-75
2021/07/26 11:18:31;;;;;;;4.55;1.98;;;28.20;45.40;;;;;;6219838;23;20091;-74
2021/07/26 11:21:03;;;;;;;3.78;1.70;;;28.00;45.90;;;;;;6219595;23;20095;-74
2021/07/26 11:23:47;;;;;;;4.80;1.67;;;28.20;46.60;;;;;;6218890;23;20032;-75
2021/07/26 11:26:34;;;;;;;5.28;1.90;;;29.00;44.90;;;;;;6218233;23;20224;-74
2021/07/26 11:29:04;;;;;;;6.82;1.88;;;32.30;38.90;;;;;;6217179;23;20028;-74
2021/07/26 11:31:33;;;;;;;3.25;1.90;;;32.80;37.20;;;;;;6219142;23;20190;-75
2021/07/26 11:34:08;;;;;;;3.05;1.45;;;34.50;33.20;;;;;;6218511;23;20083;-74
2021/07/26 11:36:36;;;;;;;7.82;1.88;;;34.30;34.70;;;;;;6218890;23;20084;-75
2021/07/26 11:39:06;;;;;;;4.72;1.70;;;32.80;35.30;;;;;;6218042;23;20017;-74
2021/07/26 11:41:35;;;;;;;3.85;1.75;;;31.50;37.20;;;;;;6218079;23;20028;-74
2021/07/26 11:44:02;;;;;;;;;;;30.50;38.80;;;;;;6219834;23;20055;-75
2021/07/26 11:46:30;;;;;;;4.13;1.63;;;29.60;41.50;;;;;;6219176;23;19943;-74
2021/07/26 11:48:58;;;;;;;3.80;1.55;;;29.50;41.50;;;;;;6218755;23;20024;-74
2021/07/26 11:51:40;;;;;;;3.08;1.33;;;29.60;41.90;;;;;;6219052;23;20301;-75
2021/07/26 11:54:09;;;;;;;3.63;1.73;;;30.00;41.10;;;;;;6218142;23;20263;-74
2021/07/26 11:56:38;;;;;;;3.83;1.58;;;30.80;40.00;;;;;;6218039;23;20013;-75
2021/07/26 11:59:15;;;;;;;6.32;2.17;;;32.20;36.70;;;;;;6220505;23;20024;-74
2021/07/26 12:01:47;;;;;;;3.25;1.80;;;32.40;37.50;;;;;;6213059;23;20232;-76
2021/07/26 12:04:15;;;;;;;4.22;1.77;;;34.40;34.50;;;;;;6219408;23;20051;-74
2021/07/26 12:06:56;;;;;;;2.97;1.77;;;36.10;32.00;;;;;;6221633;23;20013;-74
2021/07/26 12:09:24;;;;;;;4.63;2.30;;;37.80;30.00;;;;;;6219370;23;20025;-74
2021/07/26 12:11:54;;;;;;;3.30;1.67;;;38.20;27.40;;;;;;6219294;23;20027;-74
2021/07/26 12:14:26;;;;;;;3.28;1.60;;;36.80;30.10;;;;;;6215692;23;20028;-73
2021/07/26 12:17:01;;;;;;;3.92;1.58;;;37.00;29.70;;;;;;6220334;23;20028;-76
2021/07/26 12:19:33;;;;;;;4.38;1.73;;;39.20;27.70;;;;;;6220775;23;20075;-76
2021/07/26 12:22:20;;;;;;;3.22;1.73;;;39.10;26.70;;;;;;6218165;23;20401;-76
2021/07/26 12:24:50;;;;;;;3.42;1.52;;;36.00;30.80;;;;;;6221711;23;20309;-75
2021/07/26 12:27:30;;;;;;;3.05;1.50;;;33.00;35.10;;;;;;6219434;23;20309;-76
2021/07/26 12:29:58;;;;;;;3.38;1.58;;;32.50;37.00;;;;;;6217647;23;20024;-73
2021/07/26 12:32:26;;;;;;;3.72;1.85;;;31.80;38.60;;;;;;6217311;23;20347;-76
2021/07/26 12:35:14;;;;;;;4.00;1.60;;;31.60;39.40;;;;;;6217061;23;20372;-76
2021/07/26 12:37:41;;;;;;;6.03;1.90;;;30.60;40.40;;;;;;6216396;23;20024;-75
2021/07/26 12:40:16;;;;;;;2.65;1.38;;;29.90;41.50;;;;;;6219104;23;20260;-76
2021/07/26 12:43:04;;;;;;;5.55;2.15;;;29.60;42.40;;;;;;6218098;23;20028;-75
2021/07/26 12:45:32;;;;;;;4.18;1.95;;;29.70;42.10;;;;;;6216542;23;20013;-75
2021/07/26 12:48:10;;;;;;;3.95;2.00;;;29.70;42.10;;;;;;6218567;23;20025;-75
2021/07/26 12:50:39;;;;;;;3.83;1.65;;;29.50;43.50;;;;;;6218793;23;20354;-75
2021/07/26 12:53:06;;;;;;;;;;;29.00;45.00;;;;;;6218108;23;20023;-75
2021/07/26 12:55:33;;;;;;;6.93;1.98;;;28.90;45.70;;;;;;6219249;23;19927;-74
2021/07/26 12:58:01;;;;;;;5.95;1.95;;;29.50;44.60;;;;;;6217658;23;20024;-74
2021/07/26 13:00:30;;;;;;;4.53;1.88;;;29.90;43.30;;;;;;6214032;23;20316;-74
2021/07/26 13:02:58;;;;;;;4.78;1.73;;;29.60;44.00;;;;;;6218165;23;20023;-74